Time;durP1;ratioP1;P1;durP2;ratioP2;P2;SDS_P1;SDS_P2;PMS_P1;PMS_P2;Temp;Humidity;BMP_temperature;BMP_pressure;BME280_temperature;BME280_humidity;BME280_pressure;Samples;Min_cycle;Max_cycle;Signal;HPM_P1;HPM_P2
2023/10/31 00:02:25;;;;;;;1999.90;999.90;;;;;;;;;;5033409;28;20040;-68
2023/10/31 00:04:51;;;;;;;1999.90;999.90;;;;;;;;;;5033333;28;20036;-68
2023/10/31 00:07:17;;;;;;;1999.90;999.90;;;;;;;;;;5033302;28;20049;-70
2023/10/31 00:09:43;;;;;;;1999.90;999.90;;;;;;;;;;5033539;28;20025;-68
2023/10/31 00:12:09;;;;;;;1999.90;999.90;;;;;;;;;;5032951;28;20041;-70
2023/10/31 00:14:35;;;;;;;1999.90;999.90;;;;;;;;;;5033367;28;20030;-68
2023/10/31 00:17:01;;;;;;;1999.90;999.90;;;;;;;;;;5033480;28;20033;-71
2023/10/31 00:19:27;;;;;;;1999.90;999.90;;;;;;;;;;5032867;28;20030;-69
2023/10/31 00:21:53;;;;;;;1999.90;999.90;;;;;;;;;;5033058;28;20032;-71
2023/10/31 00:24:19;;;;;;;1999.90;999.90;;;;;;;;;;5032968;28;20061;-68
2023/10/31 00:26:46;;;;;;;1999.90;999.90;;;;;;;;;;5032528;28;20049;-69
2023/10/31 00:29:12;;;;;;;1999.90;999.90;;;;;;;;;;5032641;28;20105;-68
2023/10/31 00:31:41;;;;;;;1999.90;999.90;;;;;;;;;;5032776;28;20040;-69
2023/10/31 00:34:07;;;;;;;1999.90;999.90;;;;;;;;;;5032653;28;20460;-69
2023/10/31 00:36:33;;;;;;;1999.90;999.90;;;;;;;;;;5032554;28;20029;-69
2023/10/31 00:39:00;;;;;;;1999.90;999.90;;;;;;;;;;5032512;28;20105;-70
2023/10/31 00:41:26;;;;;;;1999.90;999.90;;;;;;;;;;5032472;28;20034;-69
2023/10/31 00:43:52;;;;;;;1999.90;999.90;;;;;;;;;;5032465;28;20025;-70
2023/10/31 00:46:18;;;;;;;1999.90;999.90;;;;;;;;;;5032424;28;20458;-71
2023/10/31 00:48:44;;;;;;;1999.90;999.90;;;;;;;;;;5032404;28;20500;-70
2023/10/31 00:51:10;;;;;;;1999.90;999.90;;;;;;;;;;5032228;28;20030;-69
2023/10/31 00:53:36;;;;;;;1999.90;999.90;;;;;;;;;;5032469;28;20036;-70
2023/10/31 00:56:02;;;;;;;1999.90;999.90;;;;;;;;;;5032546;28;20048;-69
2023/10/31 00:58:28;;;;;;;1999.90;999.90;;;;;;;;;;5032145;28;20024;-69
2023/10/31 01:00:54;;;;;;;1999.90;999.90;;;;;;;;;;5032271;28;20060;-69
2023/10/31 01:03:20;;;;;;;1999.90;999.90;;;;;;;;;;5032148;28;20439;-71
2023/10/31 01:05:46;;;;;;;1999.90;999.90;;;;;;;;;;5031908;28;20654;-68
2023/10/31 01:08:12;;;;;;;1999.90;999.90;;;;;;;;;;5032285;28;20032;-69
2023/10/31 01:10:38;;;;;;;1999.90;999.90;;;;;;;;;;5032081;28;20100;-69
2023/10/31 01:13:04;;;;;;;1999.90;999.90;;;;;;;;;;5032005;28;20029;-71
2023/10/31 01:15:30;;;;;;;1999.90;999.90;;;;;;;;;;5032115;28;20033;-70
2023/10/31 01:17:57;;;;;;;1999.90;999.90;;;;;;;;;;5031798;28;20029;-72
2023/10/31 01:20:23;;;;;;;1999.90;999.90;;;;;;;;;;5031935;28;20119;-69
2023/10/31 01:22:49;;;;;;;1999.90;999.90;;;;;;;;;;5031446;28;20036;-68
2023/10/31 01:25:15;;;;;;;1999.90;999.90;;;;;;;;;;5031486;28;20156;-68
2023/10/31 01:27:42;;;;;;;1999.90;999.90;;;;;;;;;;5031548;28;20434;-68
2023/10/31 01:30:08;;;;;;;1999.90;999.90;;;;;;;;;;5031470;28;20021;-68
2023/10/31 01:32:34;;;;;;;1999.90;999.90;;;;;;;;;;5031156;28;20076;-69
2023/10/31 01:35:00;;;;;;;1999.90;999.90;;;;;;;;;;5031270;28;20473;-68
2023/10/31 01:37:26;;;;;;;1999.90;999.90;;;;;;;;;;5031433;28;20030;-70
2023/10/31 01:39:52;;;;;;;1999.90;999.90;;;;;;;;;;5031375;28;20079;-68
2023/10/31 01:42:19;;;;;;;1999.90;999.90;;;;;;;;;;5031177;28;20021;-68
2023/10/31 01:44:45;;;;;;;1999.90;999.90;;;;;;;;;;5031283;28;20040;-68
2023/10/31 01:47:11;;;;;;;1999.90;999.90;;;;;;;;;;5031354;28;20033;-68
2023/10/31 01:49:37;;;;;;;1999.90;999.90;;;;;;;;;;5031119;28;20030;-72
2023/10/31 01:52:04;;;;;;;1999.90;999.90;;;;;;;;;;5031168;28;20026;-68
2023/10/31 01:54:30;;;;;;;1999.90;999.90;;;;;;;;;;5031102;28;20033;-71
2023/10/31 01:56:57;;;;;;;1999.90;999.90;;;;;;;;;;5031038;28;20037;-72
2023/10/31 01:59:27;;;;;;;1999.90;999.90;;;;;;;;;;5030928;28;20029;-70
2023/10/31 02:01:54;;;;;;;1999.90;999.90;;;;;;;;;;5031136;28;20030;-69
2023/10/31 02:04:20;;;;;;;1999.90;999.90;;;;;;;;;;5031110;28;20026;-68
2023/10/31 02:06:46;;;;;;;1999.90;999.90;;;;;;;;;;5031022;28;20111;-69
2023/10/31 02:09:12;;;;;;;1999.90;999.90;;;;;;;;;;5030759;28;20068;-71
2023/10/31 02:11:38;;;;;;;1999.90;999.90;;;;;;;;;;5030697;28;20227;-68
2023/10/31 02:14:04;;;;;;;1999.90;999.90;;;;;;;;;;5030997;28;20041;-68
2023/10/31 02:16:30;;;;;;;1999.90;999.90;;;;;;;;;;5031173;28;20032;-68
2023/10/31 02:18:56;;;;;;;1999.90;999.90;;;;;;;;;;5030996;28;20117;-68
2023/10/31 02:21:23;;;;;;;1999.90;999.90;;;;;;;;;;5030952;28;20546;-68
2023/10/31 02:23:58;;;;;;;1999.90;999.90;;;;;;;;;;5031041;28;20032;-70
2023/10/31 02:26:24;;;;;;;1999.90;999.90;;;;;;;;;;5030610;28;20144;-68
2023/10/31 02:28:50;;;;;;;1999.90;999.90;;;;;;;;;;5030959;28;20481;-69
2023/10/31 02:31:16;;;;;;;1999.90;999.90;;;;;;;;;;5030979;28;20025;-70
2023/10/31 02:33:42;;;;;;;1999.90;999.90;;;;;;;;;;5030624;28;20025;-70
2023/10/31 02:36:09;;;;;;;1999.90;999.90;;;;;;;;;;5030944;28;20025;-68
2023/10/31 02:38:35;;;;;;;1999.90;999.90;;;;;;;;;;5030871;28;20021;-68
2023/10/31 02:41:01;;;;;;;1999.90;999.90;;;;;;;;;;5030949;28;20029;-71
2023/10/31 02:43:27;;;;;;;1999.90;999.90;;;;;;;;;;5033679;28;20041;-67
2023/10/31 02:45:53;;;;;;;1999.90;999.90;;;;;;;;;;5034805;28;20039;-68
2023/10/31 02:48:20;;;;;;;1999.90;999.90;;;;;;;;;;5034847;28;20034;-67
2023/10/31 02:50:46;;;;;;;1999.90;999.90;;;;;;;;;;5035052;28;20021;-68
2023/10/31 02:53:12;;;;;;;1999.90;999.90;;;;;;;;;;5034769;28;20029;-72
2023/10/31 02:55:38;;;;;;;1999.90;999.90;;;;;;;;;;5034879;28;20038;-68
2023/10/31 02:58:04;;;;;;;1999.90;999.90;;;;;;;;;;5034702;28;20060;-67
2023/10/31 03:00:30;;;;;;;1999.90;999.90;;;;;;;;;;5034514;28;20075;-69
2023/10/31 03:02:56;;;;;;;1999.90;999.90;;;;;;;;;;5034577;28;20037;-71
2023/10/31 03:05:22;;;;;;;1999.90;999.90;;;;;;;;;;5034104;28;20033;-68
2023/10/31 03:07:49;;;;;;;1999.90;999.90;;;;;;;;;;5034223;28;20038;-69
2023/10/31 03:10:15;;;;;;;1999.90;999.90;;;;;;;;;;5034345;28;20467;-68
2023/10/31 03:12:41;;;;;;;1999.90;999.90;;;;;;;;;;5033939;28;20384;-68
2023/10/31 03:15:07;;;;;;;1999.90;999.90;;;;;;;;;;5033718;28;20880;-67
2023/10/31 03:17:34;;;;;;;1999.90;999.90;;;;;;;;;;5033666;28;20033;-69
2023/10/31 03:20:00;;;;;;;1999.90;999.90;;;;;;;;;;5033655;28;20044;-67
2023/10/31 03:22:26;;;;;;;1999.90;999.90;;;;;;;;;;5033536;28;20028;-68
2023/10/31 03:24:52;;;;;;;1999.90;999.90;;;;;;;;;;5033164;28;20026;-68
2023/10/31 03:27:18;;;;;;;1999.90;999.90;;;;;;;;;;5033187;28;20124;-68
2023/10/31 03:29:44;;;;;;;1999.90;999.90;;;;;;;;;;5033248;28;20029;-70
2023/10/31 03:32:10;;;;;;;1999.90;999.90;;;;;;;;;;5033344;28;20029;-68
2023/10/31 03:34:37;;;;;;;1999.90;999.90;;;;;;;;;;5033046;28;20021;-66
2023/10/31 03:37:03;;;;;;;1999.90;999.90;;;;;;;;;;5033114;28;20021;-70
2023/10/31 03:39:29;;;;;;;1999.90;999.90;;;;;;;;;;5033730;28;20029;-67
2023/10/31 03:41:55;;;;;;;1999.90;999.90;;;;;;;;;;5033580;28;20469;-67
2023/10/31 03:44:21;;;;;;;1999.90;999.90;;;;;;;;;;5033679;28;20030;-68
2023/10/31 03:46:48;;;;;;;1999.90;999.90;;;;;;;;;;5029557;28;20037;-69
2023/10/31 03:49:14;;;;;;;1999.90;999.90;;;;;;;;;;5023464;28;20453;-67
2023/10/31 03:51:40;;;;;;;1999.90;999.90;;;;;;;;;;5022194;28;20117;-70
2023/10/31 03:54:06;;;;;;;1999.90;999.90;;;;;;;;;;5023153;28;20032;-69
2023/10/31 03:56:39;;;;;;;1999.90;999.90;;;;;;;;;;5021601;28;20033;-69
2023/10/31 03:59:05;;;;;;;1999.90;999.90;;;;;;;;;;5013772;28;20026;-68
2023/10/31 04:01:31;;;;;;;1999.90;999.90;;;;;;;;;;5017525;28;20426;-70
2023/10/31 04:03:57;;;;;;;1999.90;999.90;;;;;;;;;;5017042;28;20462;-72
2023/10/31 04:06:23;;;;;;;1999.90;999.90;;;;;;;;;;5013255;28;20453;-67
2023/10/31 04:08:49;;;;;;;1999.90;999.90;;;;;;;;;;5021280;28;20021;-68
2023/10/31 04:11:15;;;;;;;1999.90;999.90;;;;;;;;;;5023145;28;20026;-70
2023/10/31 04:13:41;;;;;;;1999.90;999.90;;;;;;;;;;5021490;28;20021;-69
2023/10/31 04:16:07;;;;;;;1999.90;999.90;;;;;;;;;;5027503;28;20022;-69
2023/10/31 04:18:33;;;;;;;1999.90;999.90;;;;;;;;;;5033102;28;20465;-67
2023/10/31 04:20:59;;;;;;;1999.90;999.90;;;;;;;;;;5032775;28;20026;-69
2023/10/31 04:23:25;;;;;;;1999.90;999.90;;;;;;;;;;5032529;28;20009;-69
2023/10/31 04:25:52;;;;;;;1999.90;999.90;;;;;;;;;;5032259;28;20045;-68
2023/10/31 04:28:18;;;;;;;1999.90;999.90;;;;;;;;;;5032560;28;20087;-68
2023/10/31 04:30:44;;;;;;;1999.90;999.90;;;;;;;;;;5032369;28;20029;-69
2023/10/31 04:33:11;;;;;;;1999.90;999.90;;;;;;;;;;5032905;28;20051;-69
2023/10/31 04:35:37;;;;;;;1999.90;999.90;;;;;;;;;;5032531;28;20385;-68
2023/10/31 04:38:03;;;;;;;1999.90;999.90;;;;;;;;;;5032754;28;20026;-71
2023/10/31 04:40:29;;;;;;;1999.90;999.90;;;;;;;;;;5032672;28;20029;-71
2023/10/31 04:42:55;;;;;;;1999.90;999.90;;;;;;;;;;5032395;28;20039;-70
2023/10/31 04:45:21;;;;;;;1999.90;999.90;;;;;;;;;;5032566;28;20033;-68
2023/10/31 04:47:47;;;;;;;1999.90;999.90;;;;;;;;;;5032319;28;20044;-71
2023/10/31 04:50:13;;;;;;;1999.90;999.90;;;;;;;;;;5032411;28;20466;-69
2023/10/31 04:52:39;;;;;;;1999.90;999.90;;;;;;;;;;5032367;28;20394;-68
2023/10/31 04:55:06;;;;;;;1999.90;999.90;;;;;;;;;;5055367;28;20465;-69
2023/10/31 04:57:32;;;;;;;1999.90;999.90;;;;;;;;;;5032494;28;20030;-69
2023/10/31 04:59:59;;;;;;;1999.90;999.90;;;;;;;;;;5032098;28;20025;-68
2023/10/31 05:02:25;;;;;;;1999.90;999.90;;;;;;;;;;5032273;28;20033;-68
2023/10/31 05:04:51;;;;;;;1999.90;999.90;;;;;;;;;;5063888;28;20061;-68
2023/10/31 05:07:17;;;;;;;1999.90;999.90;;;;;;;;;;5030931;28;20030;-72
2023/10/31 05:09:44;;;;;;;1999.90;999.90;;;;;;;;;;5032107;28;20049;-67
2023/10/31 05:12:10;;;;;;;1999.90;999.90;;;;;;;;;;5032189;28;20029;-68
2023/10/31 05:14:36;;;;;;;1999.90;999.90;;;;;;;;;;5031747;28;20048;-68
2023/10/31 05:17:02;;;;;;;1999.90;999.90;;;;;;;;;;5032165;28;20041;-70
2023/10/31 05:19:28;;;;;;;1999.90;999.90;;;;;;;;;;5031962;28;20029;-69
2023/10/31 05:21:54;;;;;;;1999.90;999.90;;;;;;;;;;5031794;28;20037;-69
2023/10/31 05:24:20;;;;;;;1999.90;999.90;;;;;;;;;;5031657;28;20035;-68
2023/10/31 05:26:46;;;;;;;1999.90;999.90;;;;;;;;;;5031412;28;20152;-68
2023/10/31 05:29:12;;;;;;;1999.90;999.90;;;;;;;;;;5031799;28;20041;-66
2023/10/31 05:31:38;;;;;;;1999.90;999.90;;;;;;;;;;5031715;28;20037;-69
2023/10/31 05:34:05;;;;;;;1999.90;999.90;;;;;;;;;;5031588;28;20033;-69
2023/10/31 05:36:31;;;;;;;1999.90;999.90;;;;;;;;;;5031493;28;20025;-69
2023/10/31 05:38:57;;;;;;;1999.90;999.90;;;;;;;;;;5031608;28;20095;-67
2023/10/31 05:41:23;;;;;;;1999.90;999.90;;;;;;;;;;5031472;28;20052;-70
2023/10/31 05:43:49;;;;;;;1999.90;999.90;;;;;;;;;;5031225;28;20488;-70
2023/10/31 05:46:15;;;;;;;1999.90;999.90;;;;;;;;;;5031163;28;20060;-69
2023/10/31 05:48:44;;;;;;;1999.90;999.90;;;;;;;;;;5031248;28;20026;-69
2023/10/31 05:51:14;;;;;;;1999.90;999.90;;;;;;;;;;5031071;28;20045;-69
2023/10/31 05:53:41;;;;;;;1999.90;999.90;;;;;;;;;;5030940;28;20029;-69
2023/10/31 05:56:07;;;;;;;1999.90;999.90;;;;;;;;;;5030844;28;20056;-69
2023/10/31 05:58:33;;;;;;;1999.90;999.90;;;;;;;;;;5030787;28;20036;-68
2023/10/31 06:00:59;;;;;;;1999.90;999.90;;;;;;;;;;5030651;28;20040;-69
2023/10/31 06:03:25;;;;;;;1999.90;999.90;;;;;;;;;;5030175;28;20373;-68
2023/10/31 06:05:51;;;;;;;1999.90;999.90;;;;;;;;;;5030184;28;20096;-69
2023/10/31 06:08:17;;;;;;;1999.90;999.90;;;;;;;;;;5030544;28;20112;-68
2023/10/31 06:10:43;;;;;;;1999.90;999.90;;;;;;;;;;5030918;28;20338;-68
2023/10/31 06:13:10;;;;;;;1999.90;999.90;;;;;;;;;;5030231;28;20381;-68
2023/10/31 06:15:36;;;;;;;1999.90;999.90;;;;;;;;;;5029699;28;20492;-68
2023/10/31 06:18:02;;;;;;;1999.90;999.90;;;;;;;;;;5029917;28;20057;-71
2023/10/31 06:20:28;;;;;;;1999.90;999.90;;;;;;;;;;5012874;28;20033;-68
2023/10/31 06:22:55;;;;;;;1999.90;999.90;;;;;;;;;;5012370;28;20025;-69
2023/10/31 06:25:21;;;;;;;1999.90;999.90;;;;;;;;;;5030123;28;20112;-68
2023/10/31 06:27:48;;;;;;;1999.90;999.90;;;;;;;;;;5029874;28;20046;-69
2023/10/31 06:30:14;;;;;;;1999.90;999.90;;;;;;;;;;5030058;28;20067;-68
2023/10/31 06:32:40;;;;;;;1999.90;999.90;;;;;;;;;;5029555;28;20072;-69
2023/10/31 06:35:07;;;;;;;1999.90;999.90;;;;;;;;;;5029872;28;20018;-71
2023/10/31 06:37:33;;;;;;;1999.90;999.90;;;;;;;;;;5030086;28;20104;-67
2023/10/31 06:39:59;;;;;;;1999.90;999.90;;;;;;;;;;5029479;28;20477;-71
2023/10/31 06:42:25;;;;;;;1999.90;999.90;;;;;;;;;;5029786;28;20469;-68
2023/10/31 06:44:51;;;;;;;1999.90;999.90;;;;;;;;;;5029734;28;20045;-70
2023/10/31 06:47:17;;;;;;;1999.90;999.90;;;;;;;;;;5029863;28;20033;-68
2023/10/31 06:49:43;;;;;;;1999.90;999.90;;;;;;;;;;5029936;28;20075;-68
2023/10/31 06:52:09;;;;;;;1999.90;999.90;;;;;;;;;;5029996;28;20075;-71
2023/10/31 06:54:35;;;;;;;1999.90;999.90;;;;;;;;;;5019953;28;20032;-69
2023/10/31 06:57:01;;;;;;;1999.90;999.90;;;;;;;;;;5020642;28;20536;-69
2023/10/31 06:59:29;;;;;;;1999.90;999.90;;;;;;;;;;5019394;28;20458;-68
2023/10/31 07:01:55;;;;;;;1999.90;999.90;;;;;;;;;;5029689;28;20024;-73
2023/10/31 07:04:21;;;;;;;1999.90;999.90;;;;;;;;;;5029792;28;20538;-70
2023/10/31 07:06:47;;;;;;;1999.90;999.90;;;;;;;;;;5026898;28;20037;-70
2023/10/31 07:09:14;;;;;;;1999.90;999.90;;;;;;;;;;5029695;28;20045;-68
2023/10/31 07:11:40;;;;;;;1999.90;999.90;;;;;;;;;;5024190;28;20136;-67
2023/10/31 07:14:06;;;;;;;1999.90;999.90;;;;;;;;;;5030452;28;20024;-69
2023/10/31 07:16:33;;;;;;;1999.90;999.90;;;;;;;;;;5029206;28;20018;-70
2023/10/31 07:18:59;;;;;;;1999.90;999.90;;;;;;;;;;5029818;28;20033;-70
2023/10/31 07:21:26;;;;;;;1999.90;999.90;;;;;;;;;;5029789;28;20037;-72
2023/10/31 07:23:52;;;;;;;1999.90;999.90;;;;;;;;;;5014577;28;20026;-73
2023/10/31 07:26:18;;;;;;;1999.90;999.90;;;;;;;;;;5015503;28;20143;-70
2023/10/31 07:28:44;;;;;;;1999.90;999.90;;;;;;;;;;5026101;28;20813;-69
2023/10/31 07:31:10;;;;;;;1999.90;999.90;;;;;;;;;;5030859;28;20067;-68
2023/10/31 07:33:36;;;;;;;1999.90;999.90;;;;;;;;;;5016095;28;20126;-69
2023/10/31 07:36:03;;;;;;;1999.90;999.90;;;;;;;;;;5023385;28;20021;-69
2023/10/31 07:38:29;;;;;;;1999.90;999.90;;;;;;;;;;5022718;28;21358;-67
2023/10/31 07:40:55;;;;;;;1999.90;999.90;;;;;;;;;;5013792;28;20438;-67
2023/10/31 07:43:21;;;;;;;1999.90;999.90;;;;;;;;;;5013855;28;20033;-71
2023/10/31 07:45:47;;;;;;;1999.90;999.90;;;;;;;;;;5016028;28;20104;-69
2023/10/31 07:48:13;;;;;;;1999.90;999.90;;;;;;;;;;5032267;28;20060;-70
2023/10/31 07:50:40;;;;;;;1999.90;999.90;;;;;;;;;;5033782;28;20473;-70
2023/10/31 07:53:06;;;;;;;1999.90;999.90;;;;;;;;;;5033309;28;20353;-69
2023/10/31 07:55:32;;;;;;;1999.90;999.90;;;;;;;;;;5027175;28;20531;-73
2023/10/31 07:57:58;;;;;;;1999.90;999.90;;;;;;;;;;5029768;28;20091;-74
2023/10/31 08:00:25;;;;;;;1999.90;999.90;;;;;;;;;;5033078;28;20029;-68
2023/10/31 08:02:51;;;;;;;1999.90;999.90;;;;;;;;;;5032798;28;20060;-71
2023/10/31 08:05:17;;;;;;;1999.90;999.90;;;;;;;;;;5032755;28;20432;-70
2023/10/31 08:07:44;;;;;;;1999.90;999.90;;;;;;;;;;5032827;28;20081;-71
2023/10/31 08:10:10;;;;;;;1999.90;999.90;;;;;;;;;;5032679;28;20025;-71
2023/10/31 08:12:36;;;;;;;1999.90;999.90;;;;;;;;;;5031649;28;20034;-71
2023/10/31 08:15:02;;;;;;;1999.90;999.90;;;;;;;;;;5033343;28;20030;-70
2023/10/31 08:17:29;;;;;;;1999.90;999.90;;;;;;;;;;5031649;28;20026;-70
2023/10/31 08:19:55;;;;;;;1999.90;999.90;;;;;;;;;;5032113;28;20021;-74
2023/10/31 08:22:21;;;;;;;1999.90;999.90;;;;;;;;;;5031861;28;20029;-73
2023/10/31 08:24:47;;;;;;;1999.90;999.90;;;;;;;;;;5032197;28;20151;-71
2023/10/31 08:27:13;;;;;;;1999.90;999.90;;;;;;;;;;5032373;28;20560;-71
2023/10/31 08:29:39;;;;;;;1999.90;999.90;;;;;;;;;;5032540;28;20021;-68
2023/10/31 08:32:05;;;;;;;1999.90;999.90;;;;;;;;;;5032049;28;20404;-67
2023/10/31 08:34:31;;;;;;;1999.90;999.90;;;;;;;;;;5032449;28;20027;-69
2023/10/31 08:36:59;;;;;;;1999.90;999.90;;;;;;;;;;5032514;28;20067;-69
2023/10/31 08:39:25;;;;;;;1999.90;999.90;;;;;;;;;;5032859;28;20026;-68
2023/10/31 08:41:58;;;;;;;1999.90;999.90;;;;;;;;;;5031933;28;20035;-77
2023/10/31 08:44:24;;;;;;;1999.90;999.90;;;;;;;;;;5032382;28;20425;-69
2023/10/31 08:46:50;;;;;;;1999.90;999.90;;;;;;;;;;5032351;28;20112;-71
2023/10/31 08:49:16;;;;;;;1999.90;999.90;;;;;;;;;;5032514;28;20022;-67
2023/10/31 08:51:43;;;;;;;1999.90;999.90;;;;;;;;;;5032186;28;20452;-69
2023/10/31 08:54:09;;;;;;;1999.90;999.90;;;;;;;;;;5029221;28;20030;-68
2023/10/31 08:56:35;;;;;;;1999.90;999.90;;;;;;;;;;5019387;28;20022;-69
2023/10/31 08:59:02;;;;;;;1999.90;999.90;;;;;;;;;;5012287;28;20034;-69
2023/10/31 09:01:31;;;;;;;1999.90;999.90;;;;;;;;;;5012636;28;20104;-70
2023/10/31 09:04:00;;;;;;;1999.90;999.90;;;;;;;;;;5018704;28;20029;-68
2023/10/31 09:06:26;;;;;;;1999.90;999.90;;;;;;;;;;5032092;28;20060;-68
2023/10/31 09:08:52;;;;;;;1999.90;999.90;;;;;;;;;;5031882;28;20018;-67
2023/10/31 09:11:19;;;;;;;1999.90;999.90;;;;;;;;;;5032045;28;20036;-67
2023/10/31 09:13:45;;;;;;;1999.90;999.90;;;;;;;;;;5031825;28;20347;-68
2023/10/31 09:16:12;;;;;;;1999.90;999.90;;;;;;;;;;5030705;28;20060;-70
2023/10/31 09:18:38;;;;;;;1999.90;999.90;;;;;;;;;;5032187;28;20029;-67
2023/10/31 09:21:04;;;;;;;1999.90;999.90;;;;;;;;;;5029652;28;20026;-71
2023/10/31 09:23:30;;;;;;;1999.90;999.90;;;;;;;;;;5013739;28;20092;-68
2023/10/31 09:25:56;;;;;;;1999.90;999.90;;;;;;;;;;5011432;28;20223;-72
2023/10/31 09:28:22;;;;;;;1999.90;999.90;;;;;;;;;;5011920;28;20076;-77
2023/10/31 09:30:49;;;;;;;1999.90;999.90;;;;;;;;;;5011652;28;20029;-74
2023/10/31 09:33:15;;;;;;;1999.90;999.90;;;;;;;;;;5011750;28;20057;-71
2023/10/31 09:35:41;;;;;;;1999.90;999.90;;;;;;;;;;5010627;28;20393;-74
2023/10/31 09:38:07;;;;;;;1999.90;999.90;;;;;;;;;;5011495;28;20470;-71
2023/10/31 09:40:33;;;;;;;1999.90;999.90;;;;;;;;;;5011880;28;20531;-75
2023/10/31 09:42:59;;;;;;;1999.90;999.90;;;;;;;;;;5011828;28;20033;-69
2023/10/31 09:45:26;;;;;;;1999.90;999.90;;;;;;;;;;5011776;28;20421;-74
2023/10/31 09:47:53;;;;;;;1999.90;999.90;;;;;;;;;;5011529;28;20068;-75
2023/10/31 09:50:19;;;;;;;1999.90;999.90;;;;;;;;;;5011601;28;20028;-73
2023/10/31 09:52:46;;;;;;;1999.90;999.90;;;;;;;;;;5010994;28;20525;-73
2023/10/31 09:55:12;;;;;;;1999.90;999.90;;;;;;;;;;5011517;28;20482;-70
2023/10/31 09:57:38;;;;;;;1999.90;999.90;;;;;;;;;;5011691;28;20497;-73
2023/10/31 10:00:04;;;;;;;1999.90;999.90;;;;;;;;;;5011667;28;20393;-70
2023/10/31 10:02:30;;;;;;;1999.90;999.90;;;;;;;;;;5011398;28;20030;-74
2023/10/31 10:04:57;;;;;;;1999.90;999.90;;;;;;;;;;5010975;28;20076;-75
2023/10/31 10:07:23;;;;;;;1999.90;999.90;;;;;;;;;;5010892;28;20045;-71
2023/10/31 10:09:49;;;;;;;1999.90;999.90;;;;;;;;;;5011308;28;20117;-77
2023/10/31 10:12:18;;;;;;;1999.90;999.90;;;;;;;;;;5010899;28;20034;-71
2023/10/31 10:14:47;;;;;;;1999.90;999.90;;;;;;;;;;5010731;28;20049;-69
2023/10/31 10:17:23;;;;;;;1999.90;999.90;;;;;;;;;;5010945;28;20034;-68
2023/10/31 10:20:05;;;;;;;1999.90;999.90;;;;;;;;;;5010831;28;20026;-72
2023/10/31 10:22:31;;;;;;;1999.90;999.90;;;;;;;;;;5010529;28;20216;-72
2023/10/31 10:24:57;;;;;;;1999.90;999.90;;;;;;;;;;5010334;28;20022;-68
2023/10/31 10:27:23;;;;;;;1999.90;999.90;;;;;;;;;;5010276;28;20042;-69
2023/10/31 10:29:54;;;;;;;1999.90;999.90;;;;;;;;;;5010592;28;20091;-70
2023/10/31 10:32:20;;;;;;;1999.90;999.90;;;;;;;;;;5010474;28;20040;-66
2023/10/31 10:34:46;;;;;;;1999.90;999.90;;;;;;;;;;5010768;28;20030;-77
2023/10/31 10:37:13;;;;;;;1999.90;999.90;;;;;;;;;;5010739;28;20026;-67
2023/10/31 10:39:40;;;;;;;1999.90;999.90;;;;;;;;;;5010617;28;20029;-65
2023/10/31 10:42:11;;;;;;;1999.90;999.90;;;;;;;;;;5010416;28;20026;-63
2023/10/31 10:44:39;;;;;;;1999.90;999.90;;;;;;;;;;5010614;28;20033;-64
2023/10/31 10:47:06;;;;;;;1999.90;999.90;;;;;;;;;;5010758;28;20038;-65
2023/10/31 10:49:35;;;;;;;1999.90;999.90;;;;;;;;;;5011072;28;20030;-65
2023/10/31 10:52:08;;;;;;;1999.90;999.90;;;;;;;;;;5010934;28;20026;-69
2023/10/31 10:54:45;;;;;;;1999.90;999.90;;;;;;;;;;5010503;28;20026;-65
2023/10/31 10:57:16;;;;;;;1999.90;999.90;;;;;;;;;;5010827;28;20538;-77
2023/10/31 10:59:43;;;;;;;1999.90;999.90;;;;;;;;;;5010560;28;20030;-70
2023/10/31 11:02:14;;;;;;;1999.90;999.90;;;;;;;;;;5010760;28;20109;-78
2023/10/31 11:04:42;;;;;;;1999.90;999.90;;;;;;;;;;5013890;28;20032;-69
2023/10/31 11:07:08;;;;;;;1999.90;999.90;;;;;;;;;;5014439;28;20046;-76
2023/10/31 11:09:34;;;;;;;1999.90;999.90;;;;;;;;;;5014879;28;20436;-75
2023/10/31 11:12:01;;;;;;;1999.90;999.90;;;;;;;;;;5014781;28;20420;-79
2023/10/31 11:14:29;;;;;;;1999.90;999.90;;;;;;;;;;5014457;28;20028;-72
2023/10/31 11:16:57;;;;;;;1999.90;999.90;;;;;;;;;;5014594;28;20044;-71
2023/10/31 11:19:23;;;;;;;1999.90;999.90;;;;;;;;;;5014438;28;20026;-78
2023/10/31 11:21:56;;;;;;;1999.90;999.90;;;;;;;;;;5014498;28;20080;-79
2023/10/31 11:24:23;;;;;;;;;;;;;;;;;;5015051;28;20396;-70
2023/10/31 11:26:52;;;;;;;1999.90;999.90;;;;;;;;;;5013905;28;19921;-79
2023/10/31 11:29:19;;;;;;;1999.90;999.90;;;;;;;;;;5016255;28;20142;-70
2023/10/31 11:31:45;;;;;;;1999.90;999.90;;;;;;;;;;5024698;28;20056;-71
2023/10/31 11:34:12;;;;;;;1999.90;999.90;;;;;;;;;;5033822;28;20083;-70
2023/10/31 11:36:38;;;;;;;1999.90;999.90;;;;;;;;;;5033826;28;20017;-71
2023/10/31 11:39:14;;;;;;;1999.90;999.90;;;;;;;;;;5033095;28;20381;-78
2023/10/31 11:41:40;;;;;;;1999.90;999.90;;;;;;;;;;5033559;28;20021;-75
2023/10/31 11:44:06;;;;;;;1999.90;999.90;;;;;;;;;;5034011;28;20389;-74
2023/10/31 11:46:32;;;;;;;1999.90;999.90;;;;;;;;;;5033813;28;20033;-78
2023/10/31 11:49:00;;;;;;;1999.90;999.90;;;;;;;;;;5033823;28;20055;-74
2023/10/31 11:51:26;;;;;;;1999.90;999.90;;;;;;;;;;5034033;28;20104;-77
2023/10/31 11:53:52;;;;;;;1999.90;999.90;;;;;;;;;;5033630;28;20017;-71
2023/10/31 11:56:19;;;;;;;1999.90;999.90;;;;;;;;;;5033589;28;20370;-73
2023/10/31 11:58:45;;;;;;;1999.90;999.90;;;;;;;;;;5033460;28;20476;-70
2023/10/31 12:01:11;;;;;;;1999.90;999.90;;;;;;;;;;5033127;28;20461;-71
2023/10/31 12:03:41;;;;;;;1999.90;999.90;;;;;;;;;;5032685;28;20389;-69
2023/10/31 12:06:08;;;;;;;1999.90;999.90;;;;;;;;;;5033250;28;20052;-71
2023/10/31 12:08:35;;;;;;;1999.90;999.90;;;;;;;;;;5033229;28;20088;-71
2023/10/31 12:11:07;;;;;;;1999.90;999.90;;;;;;;;;;5033552;28;20162;-70
2023/10/31 12:13:34;;;;;;;1999.90;999.90;;;;;;;;;;5033233;28;20031;-72
2023/10/31 12:16:01;;;;;;;1999.90;999.90;;;;;;;;;;5032497;28;20041;-71
2023/10/31 12:18:29;;;;;;;1999.90;999.90;;;;;;;;;;5032982;28;20030;-70
2023/10/31 12:20:56;;;;;;;1999.90;999.90;;;;;;;;;;5033385;28;20049;-70
2023/10/31 12:23:22;;;;;;;1999.90;999.90;;;;;;;;;;5033106;28;20045;-79
2023/10/31 12:25:52;;;;;;;1999.90;999.90;;;;;;;;;;5033013;28;20056;-71
2023/10/31 12:28:18;;;;;;;1999.90;999.90;;;;;;;;;;5032652;28;20103;-77
2023/10/31 12:30:46;;;;;;;1999.90;999.90;;;;;;;;;;5032807;28;20033;-74
2023/10/31 12:33:12;;;;;;;1999.90;999.90;;;;;;;;;;5030794;28;20053;-76
2023/10/31 12:35:38;;;;;;;1999.90;999.90;;;;;;;;;;5032281;28;20026;-77
2023/10/31 12:38:05;;;;;;;1999.90;999.90;;;;;;;;;;5032517;28;20029;-77
2023/10/31 12:40:31;;;;;;;1999.90;999.90;;;;;;;;;;5032425;28;20067;-78
2023/10/31 12:42:58;;;;;;;1999.90;999.90;;;;;;;;;;5032608;28;20036;-75
2023/10/31 12:45:25;;;;;;;1999.90;999.90;;;;;;;;;;5032728;28;20033;-74
2023/10/31 12:48:04;;;;;;;1999.90;999.90;;;;;;;;;;5032508;28;20033;-71
2023/10/31 12:50:31;;;;;;;1999.90;999.90;;;;;;;;;;5032178;28;20550;-79
2023/10/31 12:52:59;;;;;;;1999.90;999.90;;;;;;;;;;5032518;28;20029;-79
2023/10/31 12:55:25;;;;;;;1999.90;999.90;;;;;;;;;;5032111;28;20041;-70
2023/10/31 12:57:52;;;;;;;1999.90;999.90;;;;;;;;;;5032330;28;20171;-80
2023/10/31 13:00:24;;;;;;;1999.90;999.90;;;;;;;;;;5032113;28;20029;-70
2023/10/31 13:02:50;;;;;;;1999.90;999.90;;;;;;;;;;5031858;28;20505;-75
2023/10/31 13:05:16;;;;;;;1999.90;999.90;;;;;;;;;;5032125;28;20391;-77
2023/10/31 13:07:52;;;;;;;1999.90;999.90;;;;;;;;;;5032063;28;20496;-79
2023/10/31 13:10:19;;;;;;;1999.90;999.90;;;;;;;;;;5031949;28;20021;-79
2023/10/31 13:12:46;;;;;;;1999.90;999.90;;;;;;;;;;5031944;28;20056;-78
2023/10/31 13:15:14;;;;;;;1999.90;999.90;;;;;;;;;;5031816;28;20308;-80
2023/10/31 13:17:41;;;;;;;1999.90;999.90;;;;;;;;;;5031346;28;20424;-71
2023/10/31 13:20:09;;;;;;;1999.90;999.90;;;;;;;;;;5031817;28;20046;-71
2023/10/31 13:22:35;;;;;;;1999.90;999.90;;;;;;;;;;5031741;28;20025;-71
2023/10/31 13:25:05;;;;;;;1999.90;999.90;;;;;;;;;;5030864;28;20080;-79
2023/10/31 13:27:37;;;;;;;1999.90;999.90;;;;;;;;;;5030077;28;20084;-71
2023/10/31 13:30:03;;;;;;;;;;;;;;;;;;5031682;28;20052;-77
2023/10/31 13:32:29;;;;;;;1999.90;999.90;;;;;;;;;;5031245;28;20416;-75
2023/10/31 13:34:55;;;;;;;1999.90;999.90;;;;;;;;;;5031162;28;20104;-79
2023/10/31 13:37:21;;;;;;;1999.90;999.90;;;;;;;;;;5031352;28;20037;-75
2023/10/31 13:39:47;;;;;;;1999.90;999.90;;;;;;;;;;5031430;28;20112;-75